sensor_id;sensor_type;location;lat;lon;timestamp;P1;durP1;ratioP1;P2;durP2;ratioP2
48524;SDS011;34316;51.514;-0.178;2022-11-23T00:03:27;17.02;;;10.98;;
48524;SDS011;34316;51.514;-0.178;2022-11-23T00:05:29;15.65;;;10.77;;
48524;SDS011;34316;51.514;-0.178;2022-11-23T00:07:31;13.77;;;10.93;;
48524;SDS011;34316;51.514;-0.178;2022-11-23T00:09:33;21.17;;;11.70;;
48524;SDS011;34316;51.514;-0.178;2022-11-23T00:11:34;17.65;;;11.93;;
48524;SDS011;34316;51.514;-0.178;2022-11-23T00:13:37;15.93;;;11.00;;
48524;SDS011;34316;51.514;-0.178;2022-11-23T00:15:41;16.92;;;11.43;;
48524;SDS011;34316;51.514;-0.178;2022-11-23T00:17:42;13.73;;;9.60;;
48524;SDS011;34316;51.514;-0.178;2022-11-23T00:19:44;15.35;;;8.98;;
48524;SDS011;34316;51.514;-0.178;2022-11-23T00:21:45;14.43;;;9.13;;
48524;SDS011;34316;51.514;-0.178;2022-11-23T00:23:47;14.95;;;8.63;;
48524;SDS011;34316;51.514;-0.178;2022-11-23T00:25:49;12.40;;;8.05;;
48524;SDS011;34316;51.514;-0.178;2022-11-23T00:28:00;12.05;;;8.52;;
48524;SDS011;34316;51.514;-0.178;2022-11-23T00:30:02;10.23;;;7.97;;
48524;SDS011;34316;51.514;-0.178;2022-11-23T00:32:04;11.57;;;8.00;;
48524;SDS011;34316;51.514;-0.178;2022-11-23T00:34:06;13.77;;;8.02;;
48524;SDS011;34316;51.514;-0.178;2022-11-23T00:36:11;10.05;;;7.13;;
48524;SDS011;34316;51.514;-0.178;2022-11-23T00:38:21;10.10;;;7.38;;
48524;SDS011;34316;51.514;-0.178;2022-11-23T00:40:22;10.85;;;8.57;;
48524;SDS011;34316;51.514;-0.178;2022-11-23T00:42:24;11.88;;;7.88;;
48524;SDS011;34316;51.514;-0.178;2022-11-23T00:44:25;14.13;;;8.55;;
48524;SDS011;34316;51.514;-0.178;2022-11-23T00:46:27;12.20;;;8.27;;
48524;SDS011;34316;51.514;-0.178;2022-11-23T00:48:29;11.80;;;8.13;;
48524;SDS011;34316;51.514;-0.178;2022-11-23T00:50:30;11.82;;;7.82;;
48524;SDS011;34316;51.514;-0.178;2022-11-23T00:52:32;12.23;;;8.23;;
48524;SDS011;34316;51.514;-0.178;2022-11-23T00:54:37;12.32;;;8.43;;
48524;SDS011;34316;51.514;-0.178;2022-11-23T00:56:42;12.15;;;7.90;;
48524;SDS011;34316;51.514;-0.178;2022-11-23T00:58:47;12.57;;;7.82;;
48524;SDS011;34316;51.514;-0.178;2022-11-23T01:00:58;11.80;;;8.88;;
48524;SDS011;34316;51.514;-0.178;2022-11-23T01:03:01;12.27;;;8.65;;
48524;SDS011;34316;51.514;-0.178;2022-11-23T01:05:02;11.82;;;7.95;;
48524;SDS011;34316;51.514;-0.178;2022-11-23T01:07:04;11.90;;;7.63;;
48524;SDS011;34316;51.514;-0.178;2022-11-23T01:09:07;8.60;;;6.90;;
48524;SDS011;34316;51.514;-0.178;2022-11-23T01:11:13;10.80;;;7.43;;
48524;SDS011;34316;51.514;-0.178;2022-11-23T01:13:15;9.05;;;6.85;;
48524;SDS011;34316;51.514;-0.178;2022-11-23T01:15:31;10.25;;;7.15;;
48524;SDS011;34316;51.514;-0.178;2022-11-23T01:17:33;8.85;;;7.13;;
48524;SDS011;34316;51.514;-0.178;2022-11-23T01:19:35;9.63;;;6.90;;
48524;SDS011;34316;51.514;-0.178;2022-11-23T01:21:36;11.43;;;7.57;;
48524;SDS011;34316;51.514;-0.178;2022-11-23T01:23:39;10.38;;;7.53;;
48524;SDS011;34316;51.514;-0.178;2022-11-23T01:25:44;12.13;;;7.32;;
48524;SDS011;34316;51.514;-0.178;2022-11-23T01:27:46;10.50;;;7.63;;
48524;SDS011;34316;51.514;-0.178;2022-11-23T01:29:54;11.88;;;6.82;;
48524;SDS011;34316;51.514;-0.178;2022-11-23T01:31:56;9.98;;;7.93;;
48524;SDS011;34316;51.514;-0.178;2022-11-23T01:33:59;10.68;;;7.78;;
48524;SDS011;34316;51.514;-0.178;2022-11-23T01:38:13;10.45;;;7.55;;
48524;SDS011;34316;51.514;-0.178;2022-11-23T01:40:21;11.27;;;8.70;;
48524;SDS011;34316;51.514;-0.178;2022-11-23T01:42:36;12.85;;;8.23;;
48524;SDS011;34316;51.514;-0.178;2022-11-23T01:44:40;12.65;;;8.80;;
48524;SDS011;34316;51.514;-0.178;2022-11-23T01:46:42;9.73;;;7.60;;
48524;SDS011;34316;51.514;-0.178;2022-11-23T01:50:57;10.98;;;7.60;;
48524;SDS011;34316;51.514;-0.178;2022-11-23T01:52:59;10.50;;;7.85;;
48524;SDS011;34316;51.514;-0.178;2022-11-23T01:55:01;9.77;;;7.45;;
48524;SDS011;34316;51.514;-0.178;2022-11-23T01:57:10;9.35;;;7.38;;
48524;SDS011;34316;51.514;-0.178;2022-11-23T01:59:14;9.90;;;7.65;;
48524;SDS011;34316;51.514;-0.178;2022-11-23T02:01:17;15.13;;;8.43;;
48524;SDS011;34316;51.514;-0.178;2022-11-23T02:03:19;12.77;;;8.65;;
48524;SDS011;34316;51.514;-0.178;2022-11-23T02:05:22;9.48;;;7.40;;
48524;SDS011;34316;51.514;-0.178;2022-11-23T02:07:25;9.93;;;7.22;;
48524;SDS011;34316;51.514;-0.178;2022-11-23T02:09:31;11.75;;;7.45;;
48524;SDS011;34316;51.514;-0.178;2022-11-23T02:11:34;10.40;;;7.38;;
48524;SDS011;34316;51.514;-0.178;2022-11-23T02:13:36;8.73;;;6.78;;
48524;SDS011;34316;51.514;-0.178;2022-11-23T02:15:37;9.82;;;6.68;;
48524;SDS011;34316;51.514;-0.178;2022-11-23T02:17:40;10.20;;;6.85;;
48524;SDS011;34316;51.514;-0.178;2022-11-23T02:22:04;8.73;;;6.68;;
48524;SDS011;34316;51.514;-0.178;2022-11-23T02:24:24;9.80;;;6.47;;
48524;SDS011;34316;51.514;-0.178;2022-11-23T02:26:29;11.25;;;8.10;;
48524;SDS011;34316;51.514;-0.178;2022-11-23T02:28:34;9.50;;;7.32;;
48524;SDS011;34316;51.514;-0.178;2022-11-23T02:30:38;10.38;;;7.85;;
48524;SDS011;34316;51.514;-0.178;2022-11-23T02:32:40;11.32;;;7.90;;
48524;SDS011;34316;51.514;-0.178;2022-11-23T02:34:42;11.50;;;8.15;;
48524;SDS011;34316;51.514;-0.178;2022-11-23T02:36:45;11.52;;;7.75;;
48524;SDS011;34316;51.514;-0.178;2022-11-23T02:38:48;10.10;;;7.78;;
48524;SDS011;34316;51.514;-0.178;2022-11-23T02:40:50;11.73;;;7.85;;
48524;SDS011;34316;51.514;-0.178;2022-11-23T02:42:51;10.30;;;8.27;;
48524;SDS011;34316;51.514;-0.178;2022-11-23T02:46:55;11.45;;;8.68;;
48524;SDS011;34316;51.514;-0.178;2022-11-23T02:48:56;12.95;;;9.10;;
48524;SDS011;34316;51.514;-0.178;2022-11-23T02:50:58;12.13;;;9.05;;
48524;SDS011;34316;51.514;-0.178;2022-11-23T02:52:59;12.18;;;9.57;;
48524;SDS011;34316;51.514;-0.178;2022-11-23T02:55:01;12.65;;;8.88;;
48524;SDS011;34316;51.514;-0.178;2022-11-23T02:57:03;15.95;;;10.65;;
48524;SDS011;34316;51.514;-0.178;2022-11-23T02:59:05;13.32;;;9.90;;
48524;SDS011;34316;51.514;-0.178;2022-11-23T03:01:07;14.02;;;10.80;;
48524;SDS011;34316;51.514;-0.178;2022-11-23T03:03:09;14.13;;;10.45;;
48524;SDS011;34316;51.514;-0.178;2022-11-23T03:05:10;13.27;;;10.40;;
48524;SDS011;34316;51.514;-0.178;2022-11-23T03:07:12;12.52;;;10.30;;
48524;SDS011;34316;51.514;-0.178;2022-11-23T03:09:14;13.27;;;10.20;;
48524;SDS011;34316;51.514;-0.178;2022-11-23T03:11:15;13.63;;;10.68;;
48524;SDS011;34316;51.514;-0.178;2022-11-23T03:13:17;12.88;;;10.32;;
48524;SDS011;34316;51.514;-0.178;2022-11-23T03:15:19;13.65;;;10.32;;
48524;SDS011;34316;51.514;-0.178;2022-11-23T03:17:21;14.10;;;11.02;;
48524;SDS011;34316;51.514;-0.178;2022-11-23T03:19:22;14.57;;;11.32;;
48524;SDS011;34316;51.514;-0.178;2022-11-23T03:21:24;16.52;;;11.57;;
48524;SDS011;34316;51.514;-0.178;2022-11-23T03:23:26;14.38;;;10.77;;
48524;SDS011;34316;51.514;-0.178;2022-11-23T03:25:28;16.05;;;11.35;;
48524;SDS011;34316;51.514;-0.178;2022-11-23T03:27:29;16.00;;;11.15;;
48524;SDS011;34316;51.514;-0.178;2022-11-23T03:29:33;16.77;;;11.57;;
48524;SDS011;34316;51.514;-0.178;2022-11-23T03:31:35;15.40;;;11.88;;
48524;SDS011;34316;51.514;-0.178;2022-11-23T03:33:36;17.13;;;10.73;;
48524;SDS011;34316;51.514;-0.178;2022-11-23T03:35:41;13.90;;;10.98;;
48524;SDS011;34316;51.514;-0.178;2022-11-23T03:37:43;13.45;;;10.23;;
48524;SDS011;34316;51.514;-0.178;2022-11-23T03:39:45;14.85;;;11.25;;
48524;SDS011;34316;51.514;-0.178;2022-11-23T03:41:48;15.30;;;10.93;;
48524;SDS011;34316;51.514;-0.178;2022-11-23T03:43:49;15.35;;;9.93;;
48524;SDS011;34316;51.514;-0.178;2022-11-23T03:45:51;16.60;;;10.02;;
48524;SDS011;34316;51.514;-0.178;2022-11-23T03:47:52;14.35;;;11.02;;
48524;SDS011;34316;51.514;-0.178;2022-11-23T03:49:54;12.82;;;10.27;;
48524;SDS011;34316;51.514;-0.178;2022-11-23T03:51:56;14.88;;;11.05;;
48524;SDS011;34316;51.514;-0.178;2022-11-23T03:53:57;12.50;;;9.65;;
48524;SDS011;34316;51.514;-0.178;2022-11-23T03:55:59;14.48;;;9.52;;
48524;SDS011;34316;51.514;-0.178;2022-11-23T03:58:01;15.25;;;9.30;;
48524;SDS011;34316;51.514;-0.178;2022-11-23T04:00:03;15.05;;;10.10;;
48524;SDS011;34316;51.514;-0.178;2022-11-23T04:02:05;13.43;;;9.07;;
48524;SDS011;34316;51.514;-0.178;2022-11-23T04:04:08;14.38;;;9.00;;
48524;SDS011;34316;51.514;-0.178;2022-11-23T04:06:09;12.18;;;9.73;;
48524;SDS011;34316;51.514;-0.178;2022-11-23T04:08:17;10.80;;;8.73;;
48524;SDS011;34316;51.514;-0.178;2022-11-23T04:10:22;12.85;;;9.48;;
48524;SDS011;34316;51.514;-0.178;2022-11-23T04:12:24;11.73;;;9.10;;
48524;SDS011;34316;51.514;-0.178;2022-11-23T04:14:26;12.05;;;9.45;;
48524;SDS011;34316;51.514;-0.178;2022-11-23T04:16:28;11.45;;;8.77;;
48524;SDS011;34316;51.514;-0.178;2022-11-23T04:18:29;12.05;;;9.02;;
48524;SDS011;34316;51.514;-0.178;2022-11-23T04:20:31;14.27;;;10.18;;
48524;SDS011;34316;51.514;-0.178;2022-11-23T04:22:32;12.43;;;9.82;;
48524;SDS011;34316;51.514;-0.178;2022-11-23T04:24:34;13.98;;;9.77;;
48524;SDS011;34316;51.514;-0.178;2022-11-23T04:26:36;13.25;;;9.55;;
48524;SDS011;34316;51.514;-0.178;2022-11-23T04:28:37;13.98;;;9.85;;
48524;SDS011;34316;51.514;-0.178;2022-11-23T04:30:39;11.05;;;8.95;;
48524;SDS011;34316;51.514;-0.178;2022-11-23T04:32:43;13.43;;;9.23;;
48524;SDS011;34316;51.514;-0.178;2022-11-23T04:34:45;13.30;;;9.98;;
48524;SDS011;34316;51.514;-0.178;2022-11-23T04:36:47;13.68;;;9.63;;
48524;SDS011;34316;51.514;-0.178;2022-11-23T04:38:49;13.68;;;9.65;;
48524;SDS011;34316;51.514;-0.178;2022-11-23T04:40:50;14.98;;;10.68;;
48524;SDS011;34316;51.514;-0.178;2022-11-23T04:42:52;12.80;;;10.23;;
48524;SDS011;34316;51.514;-0.178;2022-11-23T04:45:00;16.90;;;12.15;;
48524;SDS011;34316;51.514;-0.178;2022-11-23T04:47:02;13.35;;;10.38;;
48524;SDS011;34316;51.514;-0.178;2022-11-23T04:49:04;13.77;;;10.77;;
48524;SDS011;34316;51.514;-0.178;2022-11-23T04:51:05;13.75;;;10.77;;
48524;SDS011;34316;51.514;-0.178;2022-11-23T04:53:07;14.18;;;11.52;;
48524;SDS011;34316;51.514;-0.178;2022-11-23T04:55:09;14.30;;;10.57;;
48524;SDS011;34316;51.514;-0.178;2022-11-23T04:57:11;16.10;;;12.48;;
48524;SDS011;34316;51.514;-0.178;2022-11-23T04:59:12;16.67;;;12.98;;
48524;SDS011;34316;51.514;-0.178;2022-11-23T05:01:14;20.98;;;15.15;;
48524;SDS011;34316;51.514;-0.178;2022-11-23T05:03:15;20.83;;;15.82;;
48524;SDS011;34316;51.514;-0.178;2022-11-23T05:05:17;19.92;;;15.23;;
48524;SDS011;34316;51.514;-0.178;2022-11-23T05:07:19;17.50;;;13.57;;
48524;SDS011;34316;51.514;-0.178;2022-11-23T05:09:20;20.10;;;14.88;;
48524;SDS011;34316;51.514;-0.178;2022-11-23T05:11:22;23.30;;;15.98;;
48524;SDS011;34316;51.514;-0.178;2022-11-23T05:13:24;24.15;;;17.23;;
48524;SDS011;34316;51.514;-0.178;2022-11-23T05:15:25;23.38;;;17.88;;
48524;SDS011;34316;51.514;-0.178;2022-11-23T05:17:27;21.15;;;17.25;;
48524;SDS011;34316;51.514;-0.178;2022-11-23T05:19:29;23.70;;;16.95;;
48524;SDS011;34316;51.514;-0.178;2022-11-23T05:21:31;24.60;;;17.00;;
48524;SDS011;34316;51.514;-0.178;2022-11-23T05:23:33;21.88;;;16.70;;
48524;SDS011;34316;51.514;-0.178;2022-11-23T05:25:34;27.45;;;20.67;;
48524;SDS011;34316;51.514;-0.178;2022-11-23T05:27:36;23.35;;;20.02;;
48524;SDS011;34316;51.514;-0.178;2022-11-23T05:29:37;30.40;;;22.40;;
48524;SDS011;34316;51.514;-0.178;2022-11-23T05:31:39;29.27;;;22.02;;
48524;SDS011;34316;51.514;-0.178;2022-11-23T05:33:41;28.70;;;22.48;;
48524;SDS011;34316;51.514;-0.178;2022-11-23T05:35:42;24.70;;;20.20;;
48524;SDS011;34316;51.514;-0.178;2022-11-23T05:37:44;23.98;;;19.67;;
48524;SDS011;34316;51.514;-0.178;2022-11-23T05:39:46;23.73;;;19.45;;
48524;SDS011;34316;51.514;-0.178;2022-11-23T05:41:47;28.92;;;20.00;;
48524;SDS011;34316;51.514;-0.178;2022-11-23T05:43:49;27.13;;;19.10;;
48524;SDS011;34316;51.514;-0.178;2022-11-23T05:45:50;26.08;;;19.15;;
48524;SDS011;34316;51.514;-0.178;2022-11-23T05:47:53;25.35;;;19.05;;
48524;SDS011;34316;51.514;-0.178;2022-11-23T05:49:55;24.35;;;19.05;;
48524;SDS011;34316;51.514;-0.178;2022-11-23T05:51:57;24.83;;;18.52;;
48524;SDS011;34316;51.514;-0.178;2022-11-23T05:54:00;23.65;;;19.02;;
48524;SDS011;34316;51.514;-0.178;2022-11-23T05:56:02;22.45;;;18.65;;
48524;SDS011;34316;51.514;-0.178;2022-11-23T05:58:03;25.67;;;19.15;;
48524;SDS011;34316;51.514;-0.178;2022-11-23T06:00:05;25.10;;;19.67;;
48524;SDS011;34316;51.514;-0.178;2022-11-23T06:02:08;25.02;;;19.30;;
48524;SDS011;34316;51.514;-0.178;2022-11-23T06:04:10;22.55;;;18.75;;
48524;SDS011;34316;51.514;-0.178;2022-11-23T06:06:11;25.88;;;19.52;;
48524;SDS011;34316;51.514;-0.178;2022-11-23T06:08:13;24.55;;;18.23;;
48524;SDS011;34316;51.514;-0.178;2022-11-23T06:10:15;25.17;;;18.30;;
48524;SDS011;34316;51.514;-0.178;2022-11-23T06:12:16;23.85;;;18.02;;
48524;SDS011;34316;51.514;-0.178;2022-11-23T06:14:18;25.27;;;18.20;;
48524;SDS011;34316;51.514;-0.178;2022-11-23T06:16:19;23.25;;;17.35;;
48524;SDS011;34316;51.514;-0.178;2022-11-23T06:18:21;24.00;;;18.50;;
48524;SDS011;34316;51.514;-0.178;2022-11-23T06:20:23;26.27;;;17.08;;
48524;SDS011;34316;51.514;-0.178;2022-11-23T06:22:24;20.83;;;16.45;;
48524;SDS011;34316;51.514;-0.178;2022-11-23T06:24:26;28.40;;;16.63;;
48524;SDS011;34316;51.514;-0.178;2022-11-23T06:26:28;22.20;;;16.80;;
48524;SDS011;34316;51.514;-0.178;2022-11-23T06:28:30;23.05;;;16.90;;
48524;SDS011;34316;51.514;-0.178;2022-11-23T06:30:32;24.55;;;17.90;;
48524;SDS011;34316;51.514;-0.178;2022-11-23T06:32:33;23.95;;;17.25;;
48524;SDS011;34316;51.514;-0.178;2022-11-23T06:34:35;21.58;;;16.38;;
48524;SDS011;34316;51.514;-0.178;2022-11-23T06:36:37;22.42;;;17.85;;
48524;SDS011;34316;51.514;-0.178;2022-11-23T06:38:38;23.02;;;17.52;;
48524;SDS011;34316;51.514;-0.178;2022-11-23T06:40:40;24.95;;;17.98;;
48524;SDS011;34316;51.514;-0.178;2022-11-23T06:42:42;20.70;;;17.90;;
48524;SDS011;34316;51.514;-0.178;2022-11-23T06:44:43;25.23;;;19.95;;
48524;SDS011;34316;51.514;-0.178;2022-11-23T06:46:45;28.25;;;20.17;;
48524;SDS011;34316;51.514;-0.178;2022-11-23T06:48:47;23.90;;;18.90;;
48524;SDS011;34316;51.514;-0.178;2022-11-23T06:50:49;26.55;;;18.35;;
48524;SDS011;34316;51.514;-0.178;2022-11-23T06:52:54;24.10;;;18.13;;
48524;SDS011;34316;51.514;-0.178;2022-11-23T06:54:56;23.75;;;18.13;;
48524;SDS011;34316;51.514;-0.178;2022-11-23T06:56:58;27.70;;;18.40;;
48524;SDS011;34316;51.514;-0.178;2022-11-23T06:59:00;23.90;;;17.67;;
48524;SDS011;34316;51.514;-0.178;2022-11-23T07:01:02;23.15;;;18.98;;
48524;SDS011;34316;51.514;-0.178;2022-11-23T07:03:05;22.55;;;18.13;;
48524;SDS011;34316;51.514;-0.178;2022-11-23T07:05:07;24.08;;;18.25;;
48524;SDS011;34316;51.514;-0.178;2022-11-23T07:07:09;21.80;;;17.92;;
48524;SDS011;34316;51.514;-0.178;2022-11-23T07:09:11;25.08;;;19.02;;
48524;SDS011;34316;51.514;-0.178;2022-11-23T07:11:13;25.20;;;19.38;;
48524;SDS011;34316;51.514;-0.178;2022-11-23T07:13:14;21.48;;;17.15;;
48524;SDS011;34316;51.514;-0.178;2022-11-23T07:15:16;25.50;;;19.92;;
48524;SDS011;34316;51.514;-0.178;2022-11-23T07:17:18;26.00;;;20.77;;
48524;SDS011;34316;51.514;-0.178;2022-11-23T07:19:20;25.50;;;20.25;;
48524;SDS011;34316;51.514;-0.178;2022-11-23T07:21:21;24.80;;;18.75;;
48524;SDS011;34316;51.514;-0.178;2022-11-23T07:23:23;24.00;;;17.77;;
48524;SDS011;34316;51.514;-0.178;2022-11-23T07:25:25;21.60;;;16.35;;
48524;SDS011;34316;51.514;-0.178;2022-11-23T07:27:26;23.92;;;16.30;;
48524;SDS011;34316;51.514;-0.178;2022-11-23T07:29:28;18.88;;;15.43;;
48524;SDS011;34316;51.514;-0.178;2022-11-23T07:31:30;20.70;;;14.25;;
48524;SDS011;34316;51.514;-0.178;2022-11-23T07:33:32;18.92;;;13.88;;
48524;SDS011;34316;51.514;-0.178;2022-11-23T07:35:34;18.27;;;13.68;;
48524;SDS011;34316;51.514;-0.178;2022-11-23T07:37:37;20.42;;;15.38;;
48524;SDS011;34316;51.514;-0.178;2022-11-23T07:39:38;18.05;;;13.93;;
48524;SDS011;34316;51.514;-0.178;2022-11-23T07:41:58;23.08;;;15.25;;
48524;SDS011;34316;51.514;-0.178;2022-11-23T07:44:19;20.40;;;15.70;;
48524;SDS011;34316;51.514;-0.178;2022-11-23T07:46:21;23.00;;;16.50;;
48524;SDS011;34316;51.514;-0.178;2022-11-23T07:48:23;22.40;;;15.63;;
48524;SDS011;34316;51.514;-0.178;2022-11-23T07:50:25;21.30;;;16.85;;
48524;SDS011;34316;51.514;-0.178;2022-11-23T07:52:27;24.60;;;17.52;;
48524;SDS011;34316;51.514;-0.178;2022-11-23T07:54:29;22.25;;;15.68;;
48524;SDS011;34316;51.514;-0.178;2022-11-23T07:56:30;25.98;;;16.52;;
48524;SDS011;34316;51.514;-0.178;2022-11-23T07:58:32;21.48;;;15.30;;
48524;SDS011;34316;51.514;-0.178;2022-11-23T08:00:34;21.10;;;15.40;;
48524;SDS011;34316;51.514;-0.178;2022-11-23T08:02:36;21.92;;;14.27;;
48524;SDS011;34316;51.514;-0.178;2022-11-23T08:04:42;19.42;;;14.55;;
48524;SDS011;34316;51.514;-0.178;2022-11-23T08:06:44;24.58;;;14.30;;
48524;SDS011;34316;51.514;-0.178;2022-11-23T08:08:45;19.33;;;14.38;;
48524;SDS011;34316;51.514;-0.178;2022-11-23T08:10:47;22.73;;;13.90;;
48524;SDS011;34316;51.514;-0.178;2022-11-23T08:12:57;19.52;;;14.18;;
48524;SDS011;34316;51.514;-0.178;2022-11-23T08:15:00;18.20;;;13.60;;
48524;SDS011;34316;51.514;-0.178;2022-11-23T08:17:01;18.70;;;13.35;;
48524;SDS011;34316;51.514;-0.178;2022-11-23T08:19:03;17.13;;;12.98;;
48524;SDS011;34316;51.514;-0.178;2022-11-23T08:21:05;18.52;;;13.63;;
48524;SDS011;34316;51.514;-0.178;2022-11-23T08:23:06;19.63;;;14.23;;
48524;SDS011;34316;51.514;-0.178;2022-11-23T08:25:08;20.00;;;14.90;;
48524;SDS011;34316;51.514;-0.178;2022-11-23T08:27:10;28.27;;;16.45;;
48524;SDS011;34316;51.514;-0.178;2022-11-23T08:29:12;20.95;;;16.08;;
48524;SDS011;34316;51.514;-0.178;2022-11-23T08:31:13;24.15;;;16.90;;
48524;SDS011;34316;51.514;-0.178;2022-11-23T08:33:15;52.30;;;26.63;;
48524;SDS011;34316;51.514;-0.178;2022-11-23T08:35:17;31.10;;;18.02;;
48524;SDS011;34316;51.514;-0.178;2022-11-23T08:37:19;21.40;;;16.77;;
48524;SDS011;34316;51.514;-0.178;2022-11-23T08:39:21;25.67;;;18.15;;
48524;SDS011;34316;51.514;-0.178;2022-11-23T08:41:22;22.38;;;17.80;;
48524;SDS011;34316;51.514;-0.178;2022-11-23T08:43:24;26.05;;;18.27;;
48524;SDS011;34316;51.514;-0.178;2022-11-23T08:45:26;22.33;;;17.58;;
48524;SDS011;34316;51.514;-0.178;2022-11-23T08:47:28;25.10;;;19.30;;
48524;SDS011;34316;51.514;-0.178;2022-11-23T08:49:29;32.88;;;22.20;;
48524;SDS011;34316;51.514;-0.178;2022-11-23T08:51:31;24.65;;;19.05;;
48524;SDS011;34316;51.514;-0.178;2022-11-23T08:53:33;27.55;;;19.35;;
48524;SDS011;34316;51.514;-0.178;2022-11-23T08:55:35;24.45;;;19.52;;
48524;SDS011;34316;51.514;-0.178;2022-11-23T08:57:36;25.58;;;19.05;;
48524;SDS011;34316;51.514;-0.178;2022-11-23T08:59:38;23.08;;;18.38;;
48524;SDS011;34316;51.514;-0.178;2022-11-23T09:01:40;23.65;;;19.13;;
48524;SDS011;34316;51.514;-0.178;2022-11-23T09:03:42;22.17;;;16.85;;
48524;SDS011;34316;51.514;-0.178;2022-11-23T09:05:44;22.40;;;17.85;;
48524;SDS011;34316;51.514;-0.178;2022-11-23T09:07:46;27.20;;;18.55;;
48524;SDS011;34316;51.514;-0.178;2022-11-23T09:09:48;25.25;;;18.00;;
48524;SDS011;34316;51.514;-0.178;2022-11-23T09:11:50;19.77;;;16.60;;
48524;SDS011;34316;51.514;-0.178;2022-11-23T09:13:53;25.87;;;17.87;;
48524;SDS011;34316;51.514;-0.178;2022-11-23T09:15:58;20.13;;;16.80;;
48524;SDS011;34316;51.514;-0.178;2022-11-23T09:18:00;21.27;;;16.73;;
48524;SDS011;34316;51.514;-0.178;2022-11-23T09:20:02;22.50;;;16.60;;
48524;SDS011;34316;51.514;-0.178;2022-11-23T09:22:03;21.48;;;15.65;;
48524;SDS011;34316;51.514;-0.178;2022-11-23T09:24:05;21.58;;;15.75;;
48524;SDS011;34316;51.514;-0.178;2022-11-23T09:26:07;20.38;;;15.57;;
48524;SDS011;34316;51.514;-0.178;2022-11-23T09:28:10;20.25;;;15.93;;
48524;SDS011;34316;51.514;-0.178;2022-11-23T09:30:13;18.58;;;15.90;;
48524;SDS011;34316;51.514;-0.178;2022-11-23T09:32:15;22.75;;;16.73;;
48524;SDS011;34316;51.514;-0.178;2022-11-23T09:34:16;22.42;;;16.45;;
48524;SDS011;34316;51.514;-0.178;2022-11-23T09:36:18;19.20;;;15.40;;
48524;SDS011;34316;51.514;-0.178;2022-11-23T09:38:20;20.27;;;15.68;;
48524;SDS011;34316;51.514;-0.178;2022-11-23T09:40:42;21.63;;;16.55;;
48524;SDS011;34316;51.514;-0.178;2022-11-23T09:42:51;21.15;;;16.98;;
48524;SDS011;34316;51.514;-0.178;2022-11-23T09:44:57;21.40;;;16.25;;
48524;SDS011;34316;51.514;-0.178;2022-11-23T09:49:15;19.05;;;15.13;;
48524;SDS011;34316;51.514;-0.178;2022-11-23T09:51:18;18.55;;;14.10;;
48524;SDS011;34316;51.514;-0.178;2022-11-23T09:53:23;16.92;;;12.95;;
48524;SDS011;34316;51.514;-0.178;2022-11-23T09:57:45;12.25;;;9.60;;
48524;SDS011;34316;51.514;-0.178;2022-11-23T09:59:55;11.20;;;7.80;;
48524;SDS011;34316;51.514;-0.178;2022-11-23T10:01:59;14.10;;;9.68;;
48524;SDS011;34316;51.514;-0.178;2022-11-23T10:04:02;13.55;;;10.05;;
48524;SDS011;34316;51.514;-0.178;2022-11-23T10:08:25;14.70;;;10.43;;
48524;SDS011;34316;51.514;-0.178;2022-11-23T10:10:54;20.27;;;11.57;;
48524;SDS011;34316;51.514;-0.178;2022-11-23T10:22:40;10.93;;;7.63;;
48524;SDS011;34316;51.514;-0.178;2022-11-23T10:24:48;14.45;;;8.63;;
48524;SDS011;34316;51.514;-0.178;2022-11-23T10:26:51;11.07;;;8.35;;
48524;SDS011;34316;51.514;-0.178;2022-11-23T10:28:53;12.38;;;7.63;;
48524;SDS011;34316;51.514;-0.178;2022-11-23T10:31:00;9.50;;;6.90;;
48524;SDS011;34316;51.514;-0.178;2022-11-23T10:35:28;8.65;;;6.72;;
48524;SDS011;34316;51.514;-0.178;2022-11-23T10:37:32;10.32;;;9.07;;
48524;SDS011;34316;51.514;-0.178;2022-11-23T10:39:34;9.45;;;6.78;;
48524;SDS011;34316;51.514;-0.178;2022-11-23T10:41:36;9.60;;;7.40;;
48524;SDS011;34316;51.514;-0.178;2022-11-23T10:45:47;12.35;;;6.38;;
48524;SDS011;34316;51.514;-0.178;2022-11-23T10:47:50;9.48;;;6.18;;
48524;SDS011;34316;51.514;-0.178;2022-11-23T10:54:01;5.63;;;3.20;;
48524;SDS011;34316;51.514;-0.178;2022-11-23T10:56:05;4.20;;;2.03;;
48524;SDS011;34316;51.514;-0.178;2022-11-23T10:58:28;4.18;;;2.45;;
48524;SDS011;34316;51.514;-0.178;2022-11-23T11:00:31;7.90;;;4.53;;
48524;SDS011;34316;51.514;-0.178;2022-11-23T11:02:37;3.60;;;2.25;;
48524;SDS011;34316;51.514;-0.178;2022-11-23T11:04:41;7.10;;;5.00;;
48524;SDS011;34316;51.514;-0.178;2022-11-23T11:06:43;10.02;;;5.55;;
48524;SDS011;34316;51.514;-0.178;2022-11-23T11:08:48;7.53;;;5.72;;
48524;SDS011;34316;51.514;-0.178;2022-11-23T11:11:01;8.80;;;4.93;;
48524;SDS011;34316;51.514;-0.178;2022-11-23T11:15:23;7.18;;;4.65;;
48524;SDS011;34316;51.514;-0.178;2022-11-23T11:17:25;10.77;;;5.90;;
48524;SDS011;34316;51.514;-0.178;2022-11-23T11:19:32;6.72;;;4.93;;
48524;SDS011;34316;51.514;-0.178;2022-11-23T11:21:35;8.15;;;5.40;;
48524;SDS011;34316;51.514;-0.178;2022-11-23T11:23:41;6.05;;;3.20;;
48524;SDS011;34316;51.514;-0.178;2022-11-23T11:25:44;8.95;;;4.10;;
48524;SDS011;34316;51.514;-0.178;2022-11-23T11:27:50;8.45;;;4.65;;
48524;SDS011;34316;51.514;-0.178;2022-11-23T11:29:53;7.90;;;4.05;;
48524;SDS011;34316;51.514;-0.178;2022-11-23T11:34:44;7.97;;;4.57;;
48524;SDS011;34316;51.514;-0.178;2022-11-23T11:36:51;8.80;;;5.18;;
48524;SDS011;34316;51.514;-0.178;2022-11-23T11:38:57;8.60;;;4.93;;
48524;SDS011;34316;51.514;-0.178;2022-11-23T11:41:19;12.10;;;4.32;;
48524;SDS011;34316;51.514;-0.178;2022-11-23T11:43:29;10.25;;;4.30;;
48524;SDS011;34316;51.514;-0.178;2022-11-23T11:45:44;8.27;;;4.43;;
48524;SDS011;34316;51.514;-0.178;2022-11-23T11:50:20;4.93;;;3.00;;
48524;SDS011;34316;51.514;-0.178;2022-11-23T11:52:33;5.38;;;3.28;;
48524;SDS011;34316;51.514;-0.178;2022-11-23T11:59:38;5.50;;;2.50;;
48524;SDS011;34316;51.514;-0.178;2022-11-23T12:03:56;5.35;;;2.30;;
48524;SDS011;34316;51.514;-0.178;2022-11-23T12:12:54;5.68;;;2.17;;
48524;SDS011;34316;51.514;-0.178;2022-11-23T12:14:57;6.53;;;2.30;;
48524;SDS011;34316;51.514;-0.178;2022-11-23T12:40:35;2.15;;;0.98;;
48524;SDS011;34316;51.514;-0.178;2022-11-23T12:42:47;2.75;;;0.65;;
48524;SDS011;34316;51.514;-0.178;2022-11-23T12:45:08;1.65;;;1.00;;
48524;SDS011;34316;51.514;-0.178;2022-11-23T12:55:12;2.72;;;1.35;;
48524;SDS011;34316;51.514;-0.178;2022-11-23T12:59:15;2.45;;;1.02;;
48524;SDS011;34316;51.514;-0.178;2022-11-23T13:01:19;1.80;;;1.00;;
48524;SDS011;34316;51.514;-0.178;2022-11-23T13:13:49;4.70;;;1.10;;
48524;SDS011;34316;51.514;-0.178;2022-11-23T13:16:15;5.82;;;1.00;;
48524;SDS011;34316;51.514;-0.178;2022-11-23T13:18:35;3.03;;;1.00;;
48524;SDS011;34316;51.514;-0.178;2022-11-23T13:22:57;2.25;;;0.80;;
48524;SDS011;34316;51.514;-0.178;2022-11-23T13:31:50;4.90;;;1.73;;
48524;SDS011;34316;51.514;-0.178;2022-11-23T13:34:43;4.53;;;2.10;;
48524;SDS011;34316;51.514;-0.178;2022-11-23T13:37:00;4.03;;;1.83;;
48524;SDS011;34316;51.514;-0.178;2022-11-23T13:43:42;3.17;;;1.80;;
48524;SDS011;34316;51.514;-0.178;2022-11-23T13:45:43;5.60;;;2.00;;
48524;SDS011;34316;51.514;-0.178;2022-11-23T13:52:51;6.93;;;1.60;;
48524;SDS011;34316;51.514;-0.178;2022-11-23T13:57:10;2.60;;;1.55;;
48524;SDS011;34316;51.514;-0.178;2022-11-23T14:04:20;5.03;;;1.77;;
48524;SDS011;34316;51.514;-0.178;2022-11-23T14:11:11;2.35;;;1.00;;